sensor_id;sensor_type;location;lat;lon;timestamp;P1;durP1;ratioP1;P2;durP2;ratioP2
62457;SDS011;48509;52.122;5.250;2023-06-10T00:00:41;13.2;;;7.4;;
62457;SDS011;48509;52.122;5.250;2023-06-10T00:02:17;10.5;;;6.9;;
62457;SDS011;48509;52.122;5.250;2023-06-10T00:05:30;11.2;;;7.8;;
62457;SDS011;48509;52.122;5.250;2023-06-10T00:07:06;11.6;;;6.9;;
62457;SDS011;48509;52.122;5.250;2023-06-10T00:08:42;11.6;;;6.9;;
62457;SDS011;48509;52.122;5.250;2023-06-10T00:11:55;12.0;;;7.0;;
62457;SDS011;48509;52.122;5.250;2023-06-10T00:13:31;12.5;;;7.1;;
62457;SDS011;48509;52.122;5.250;2023-06-10T00:15:07;10.6;;;7.0;;
62457;SDS011;48509;52.122;5.250;2023-06-10T00:18:20;12.9;;;7.1;;
62457;SDS011;48509;52.122;5.250;2023-06-10T00:19:57;9.4;;;7.1;;
62457;SDS011;48509;52.122;5.250;2023-06-10T00:21:33;10.8;;;7.2;;
62457;SDS011;48509;52.122;5.250;2023-06-10T00:23:10;12.6;;;7.1;;
62457;SDS011;48509;52.122;5.250;2023-06-10T00:26:22;12.3;;;7.0;;
62457;SDS011;48509;52.122;5.250;2023-06-10T00:27:58;8.4;;;7.4;;
62457;SDS011;48509;52.122;5.250;2023-06-10T00:29:35;10.1;;;7.3;;
62457;SDS011;48509;52.122;5.250;2023-06-10T00:32:47;10.21;;;7.4;;
62457;SDS011;48509;52.122;5.250;2023-06-10T00:34:23;12.2;;;6.8;;
62457;SDS011;48509;52.122;5.250;2023-06-10T00:35:59;10.3;;;6.7;;
62457;SDS011;48509;52.122;5.250;2023-06-10T00:39:12;9.81;;;6.7;;
62457;SDS011;48509;52.122;5.250;2023-06-10T00:40:48;11.9;;;6.9;;
62457;SDS011;48509;52.122;5.250;2023-06-10T00:42:24;12.9;;;6.9;;
62457;SDS011;48509;52.122;5.250;2023-06-10T00:45:36;8.6;;;6.3;;
62457;SDS011;48509;52.122;5.250;2023-06-10T00:47:13;11.7;;;6.8;;
62457;SDS011;48509;52.122;5.250;2023-06-10T00:48:50;12.2;;;6.8;;
62457;SDS011;48509;52.122;5.250;2023-06-10T00:50:26;9.71;;;6.8;;
62457;SDS011;48509;52.122;5.250;2023-06-10T00:53:40;13.7;;;7.2;;
62457;SDS011;48509;52.122;5.250;2023-06-10T00:55:17;9.81;;;7.1;;
62457;SDS011;48509;52.122;5.250;2023-06-10T00:56:53;12.6;;;7.1;;
62457;SDS011;48509;52.122;5.250;2023-06-10T01:00:07;9.5;;;6.7;;
62457;SDS011;48509;52.122;5.250;2023-06-10T01:01:43;8.6;;;6.7;;
62457;SDS011;48509;52.122;5.250;2023-06-10T01:03:21;10.5;;;7.2;;
62457;SDS011;48509;52.122;5.250;2023-06-10T01:06:36;9.9;;;6.9;;
62457;SDS011;48509;52.122;5.250;2023-06-10T01:08:24;13.5;;;6.6;;
62457;SDS011;48509;52.122;5.250;2023-06-10T01:10:09;9.5;;;6.4;;
62457;SDS011;48509;52.122;5.250;2023-06-10T01:11:52;10.3;;;6.8;;
62457;SDS011;48509;52.122;5.250;2023-06-10T01:13:41;11.1;;;6.8;;
62457;SDS011;48509;52.122;5.250;2023-06-10T01:16:58;11.1;;;6.9;;
62457;SDS011;48509;52.122;5.250;2023-06-10T01:18:36;9.6;;;6.5;;
62457;SDS011;48509;52.122;5.250;2023-06-10T01:20:12;12.9;;;7.1;;
62457;SDS011;48509;52.122;5.250;2023-06-10T01:21:48;9.21;;;6.7;;
62457;SDS011;48509;52.122;5.250;2023-06-10T01:25:01;9.6;;;6.7;;
62457;SDS011;48509;52.122;5.250;2023-06-10T01:26:37;8.81;;;6.7;;
62457;SDS011;48509;52.122;5.250;2023-06-10T01:28:14;13.0;;;7.0;;
62457;SDS011;48509;52.122;5.250;2023-06-10T01:31:47;12.0;;;6.7;;
62457;SDS011;48509;52.122;5.250;2023-06-10T01:33:28;10.8;;;7.0;;
62457;SDS011;48509;52.122;5.250;2023-06-10T01:36:46;9.31;;;6.4;;
62457;SDS011;48509;52.122;5.250;2023-06-10T01:40:03;12.7;;;6.9;;
62457;SDS011;48509;52.122;5.250;2023-06-10T01:41:43;11.6;;;7.0;;
62457;SDS011;48509;52.122;5.250;2023-06-10T01:43:19;10.5;;;6.6;;
62457;SDS011;48509;52.122;5.250;2023-06-10T01:44:56;13.4;;;6.7;;
62457;SDS011;48509;52.122;5.250;2023-06-10T01:48:09;11.2;;;7.1;;
62457;SDS011;48509;52.122;5.250;2023-06-10T01:49:45;13.3;;;7.2;;
62457;SDS011;48509;52.122;5.250;2023-06-10T01:54:34;12.9;;;7.4;;
62457;SDS011;48509;52.122;5.250;2023-06-10T01:56:11;12.5;;;7.3;;
62457;SDS011;48509;52.122;5.250;2023-06-10T01:57:47;10.0;;;7.0;;
62457;SDS011;48509;52.122;5.250;2023-06-10T01:59:23;10.8;;;7.3;;
62457;SDS011;48509;52.122;5.250;2023-06-10T02:02:35;13.2;;;6.9;;
62457;SDS011;48509;52.122;5.250;2023-06-10T02:04:11;9.9;;;7.0;;
62457;SDS011;48509;52.122;5.250;2023-06-10T02:05:48;10.9;;;7.1;;
62457;SDS011;48509;52.122;5.250;2023-06-10T02:09:00;10.21;;;7.1;;
62457;SDS011;48509;52.122;5.250;2023-06-10T02:12:12;12.0;;;7.3;;
62457;SDS011;48509;52.122;5.250;2023-06-10T02:15:25;13.4;;;7.2;;
62457;SDS011;48509;52.122;5.250;2023-06-10T02:17:01;13.7;;;7.4;;
62457;SDS011;48509;52.122;5.250;2023-06-10T02:18:37;13.3;;;7.3;;
62457;SDS011;48509;52.122;5.250;2023-06-10T02:21:49;11.0;;;7.1;;
62457;SDS011;48509;52.122;5.250;2023-06-10T02:23:25;15.3;;;7.8;;
62457;SDS011;48509;52.122;5.250;2023-06-10T02:25:02;15.3;;;7.8;;
62457;SDS011;48509;52.122;5.250;2023-06-10T02:26:39;10.7;;;7.2;;
62457;SDS011;48509;52.122;5.250;2023-06-10T02:29:52;9.9;;;7.4;;
62457;SDS011;48509;52.122;5.250;2023-06-10T02:31:28;11.9;;;7.5;;
62457;SDS011;48509;52.122;5.250;2023-06-10T02:33:04;13.0;;;7.2;;
62457;SDS011;48509;52.122;5.250;2023-06-10T02:36:17;13.6;;;7.3;;
62457;SDS011;48509;52.122;5.250;2023-06-10T02:37:53;10.8;;;6.9;;
62457;SDS011;48509;52.122;5.250;2023-06-10T02:39:29;17.61;;;7.6;;
62457;SDS011;48509;52.122;5.250;2023-06-10T02:42:41;11.8;;;7.4;;
62457;SDS011;48509;52.122;5.250;2023-06-10T02:44:18;15.0;;;7.3;;
62457;SDS011;48509;52.122;5.250;2023-06-10T02:45:54;13.9;;;7.0;;
62457;SDS011;48509;52.122;5.250;2023-06-10T02:47:30;14.3;;;7.2;;
62457;SDS011;48509;52.122;5.250;2023-06-10T02:50:42;12.8;;;7.0;;
62457;SDS011;48509;52.122;5.250;2023-06-10T02:52:18;8.9;;;7.0;;
62457;SDS011;48509;52.122;5.250;2023-06-10T02:53:56;11.4;;;6.7;;
62457;SDS011;48509;52.122;5.250;2023-06-10T02:57:08;10.5;;;6.8;;
62457;SDS011;48509;52.122;5.250;2023-06-10T02:58:44;10.4;;;6.6;;
62457;SDS011;48509;52.122;5.250;2023-06-10T03:00:20;8.9;;;6.7;;
62457;SDS011;48509;52.122;5.250;2023-06-10T03:03:33;13.0;;;6.6;;
62457;SDS011;48509;52.122;5.250;2023-06-10T03:05:09;11.6;;;7.0;;
62457;SDS011;48509;52.122;5.250;2023-06-10T03:06:45;10.3;;;6.7;;
62457;SDS011;48509;52.122;5.250;2023-06-10T03:09:57;10.1;;;6.7;;
62457;SDS011;48509;52.122;5.250;2023-06-10T03:11:33;14.0;;;6.8;;
62457;SDS011;48509;52.122;5.250;2023-06-10T03:13:10;10.5;;;6.7;;
62457;SDS011;48509;52.122;5.250;2023-06-10T03:14:46;10.21;;;6.6;;
62457;SDS011;48509;52.122;5.250;2023-06-10T03:17:58;10.4;;;6.4;;
62457;SDS011;48509;52.122;5.250;2023-06-10T03:19:34;13.2;;;7.3;;
62457;SDS011;48509;52.122;5.250;2023-06-10T03:21:11;13.7;;;6.9;;
62457;SDS011;48509;52.122;5.250;2023-06-10T03:24:23;10.0;;;7.0;;
62457;SDS011;48509;52.122;5.250;2023-06-10T03:25:59;11.3;;;7.2;;
62457;SDS011;48509;52.122;5.250;2023-06-10T03:27:35;14.8;;;6.8;;
62457;SDS011;48509;52.122;5.250;2023-06-10T03:30:48;12.5;;;6.9;;
62457;SDS011;48509;52.122;5.250;2023-06-10T03:32:24;9.21;;;6.9;;
62457;SDS011;48509;52.122;5.250;2023-06-10T03:34:00;11.2;;;7.1;;
62457;SDS011;48509;52.122;5.250;2023-06-10T03:35:36;10.21;;;6.9;;
62457;SDS011;48509;52.122;5.250;2023-06-10T03:38:48;9.6;;;6.7;;
62457;SDS011;48509;52.122;5.250;2023-06-10T03:40:24;13.4;;;7.0;;
62457;SDS011;48509;52.122;5.250;2023-06-10T03:42:01;11.2;;;7.0;;
62457;SDS011;48509;52.122;5.250;2023-06-10T03:45:13;11.4;;;6.8;;
62457;SDS011;48509;52.122;5.250;2023-06-10T03:46:49;13.0;;;6.9;;
62457;SDS011;48509;52.122;5.250;2023-06-10T03:48:25;12.7;;;7.0;;
62457;SDS011;48509;52.122;5.250;2023-06-10T03:51:38;11.7;;;6.6;;
62457;SDS011;48509;52.122;5.250;2023-06-10T03:53:14;11.1;;;6.9;;
62457;SDS011;48509;52.122;5.250;2023-06-10T03:54:50;9.81;;;6.8;;
62457;SDS011;48509;52.122;5.250;2023-06-10T03:58:03;9.81;;;6.8;;
62457;SDS011;48509;52.122;5.250;2023-06-10T03:59:39;9.4;;;6.4;;
62457;SDS011;48509;52.122;5.250;2023-06-10T04:01:15;12.2;;;7.2;;
62457;SDS011;48509;52.122;5.250;2023-06-10T04:02:51;12.6;;;6.7;;
62457;SDS011;48509;52.122;5.250;2023-06-10T04:06:03;10.8;;;7.1;;
62457;SDS011;48509;52.122;5.250;2023-06-10T04:07:40;10.7;;;7.0;;
62457;SDS011;48509;52.122;5.250;2023-06-10T04:09:16;9.9;;;7.1;;
62457;SDS011;48509;52.122;5.250;2023-06-10T04:12:28;12.2;;;7.0;;
62457;SDS011;48509;52.122;5.250;2023-06-10T04:14:04;11.9;;;7.4;;
62457;SDS011;48509;52.122;5.250;2023-06-10T04:15:40;11.8;;;7.3;;
62457;SDS011;48509;52.122;5.250;2023-06-10T04:18:53;10.7;;;7.2;;
62457;SDS011;48509;52.122;5.250;2023-06-10T04:20:29;9.6;;;6.5;;
62457;SDS011;48509;52.122;5.250;2023-06-10T04:22:05;10.8;;;6.6;;
62457;SDS011;48509;52.122;5.250;2023-06-10T04:25:17;10.7;;;7.1;;
62457;SDS011;48509;52.122;5.250;2023-06-10T04:26:54;12.7;;;7.1;;
62457;SDS011;48509;52.122;5.250;2023-06-10T04:28:30;12.1;;;6.6;;
62457;SDS011;48509;52.122;5.250;2023-06-10T04:30:06;10.8;;;7.3;;
62457;SDS011;48509;52.122;5.250;2023-06-10T04:33:18;10.8;;;7.3;;
62457;SDS011;48509;52.122;5.250;2023-06-10T04:34:54;12.2;;;7.2;;
62457;SDS011;48509;52.122;5.250;2023-06-10T04:36:31;11.0;;;7.1;;
62457;SDS011;48509;52.122;5.250;2023-06-10T04:39:43;10.6;;;7.4;;
62457;SDS011;48509;52.122;5.250;2023-06-10T04:41:19;10.7;;;7.5;;
62457;SDS011;48509;52.122;5.250;2023-06-10T04:42:55;9.81;;;7.1;;
62457;SDS011;48509;52.122;5.250;2023-06-10T04:46:08;12.4;;;7.0;;
62457;SDS011;48509;52.122;5.250;2023-06-10T04:47:44;12.8;;;7.6;;
62457;SDS011;48509;52.122;5.250;2023-06-10T04:49:20;13.2;;;7.2;;
62457;SDS011;48509;52.122;5.250;2023-06-10T04:50:56;11.9;;;7.1;;
62457;SDS011;48509;52.122;5.250;2023-06-10T04:54:11;11.6;;;7.1;;
62457;SDS011;48509;52.122;5.250;2023-06-10T04:55:47;10.8;;;7.2;;
62457;SDS011;48509;52.122;5.250;2023-06-10T04:57:23;13.2;;;7.5;;
62457;SDS011;48509;52.122;5.250;2023-06-10T05:00:35;11.7;;;7.2;;
62457;SDS011;48509;52.122;5.250;2023-06-10T05:02:11;14.7;;;7.7;;
62457;SDS011;48509;52.122;5.250;2023-06-10T05:03:47;11.1;;;7.7;;
62457;SDS011;48509;52.122;5.250;2023-06-10T05:07:00;15.0;;;8.2;;
62457;SDS011;48509;52.122;5.250;2023-06-10T05:08:36;10.21;;;7.2;;
62457;SDS011;48509;52.122;5.250;2023-06-10T05:10:12;13.1;;;7.5;;
62457;SDS011;48509;52.122;5.250;2023-06-10T05:13:24;11.4;;;7.3;;
62457;SDS011;48509;52.122;5.250;2023-06-10T05:15:01;11.0;;;7.1;;
62457;SDS011;48509;52.122;5.250;2023-06-10T05:16:37;15.6;;;7.6;;
62457;SDS011;48509;52.122;5.250;2023-06-10T05:18:13;12.9;;;7.6;;
62457;SDS011;48509;52.122;5.250;2023-06-10T05:21:25;10.4;;;7.0;;
62457;SDS011;48509;52.122;5.250;2023-06-10T05:23:01;12.4;;;7.5;;
62457;SDS011;48509;52.122;5.250;2023-06-10T05:24:38;15.5;;;7.4;;
62457;SDS011;48509;52.122;5.250;2023-06-10T05:27:50;12.2;;;7.4;;
62457;SDS011;48509;52.122;5.250;2023-06-10T05:29:26;14.7;;;7.8;;
62457;SDS011;48509;52.122;5.250;2023-06-10T05:31:02;12.4;;;7.7;;
62457;SDS011;48509;52.122;5.250;2023-06-10T05:34:15;13.6;;;8.0;;
62457;SDS011;48509;52.122;5.250;2023-06-10T05:35:51;12.0;;;7.9;;
62457;SDS011;48509;52.122;5.250;2023-06-10T05:37:27;14.4;;;7.8;;
62457;SDS011;48509;52.122;5.250;2023-06-10T05:39:03;11.0;;;7.2;;
62457;SDS011;48509;52.122;5.250;2023-06-10T05:42:16;14.9;;;7.5;;
62457;SDS011;48509;52.122;5.250;2023-06-10T05:43:52;17.11;;;7.6;;
62457;SDS011;48509;52.122;5.250;2023-06-10T05:45:27;12.2;;;7.7;;
62457;SDS011;48509;52.122;5.250;2023-06-10T05:48:40;14.6;;;7.6;;
62457;SDS011;48509;52.122;5.250;2023-06-10T05:50:17;13.9;;;8.2;;
62457;SDS011;48509;52.122;5.250;2023-06-10T05:51:53;12.5;;;7.4;;
62457;SDS011;48509;52.122;5.250;2023-06-10T05:55:05;13.3;;;7.9;;
62457;SDS011;48509;52.122;5.250;2023-06-10T05:56:42;11.9;;;7.7;;
62457;SDS011;48509;52.122;5.250;2023-06-10T05:58:19;13.5;;;7.6;;
62457;SDS011;48509;52.122;5.250;2023-06-10T06:01:32;15.0;;;7.4;;
62457;SDS011;48509;52.122;5.250;2023-06-10T06:03:08;15.0;;;8.2;;
62457;SDS011;48509;52.122;5.250;2023-06-10T06:04:45;11.6;;;7.2;;
62457;SDS011;48509;52.122;5.250;2023-06-10T06:06:21;14.1;;;7.7;;
62457;SDS011;48509;52.122;5.250;2023-06-10T06:09:34;13.5;;;7.8;;
62457;SDS011;48509;52.122;5.250;2023-06-10T06:11:10;11.8;;;7.4;;
62457;SDS011;48509;52.122;5.250;2023-06-10T06:12:46;13.6;;;7.4;;
62457;SDS011;48509;52.122;5.250;2023-06-10T06:15:58;12.5;;;7.7;;
62457;SDS011;48509;52.122;5.250;2023-06-10T06:17:34;14.1;;;8.0;;
62457;SDS011;48509;52.122;5.250;2023-06-10T06:19:10;16.8;;;8.2;;
62457;SDS011;48509;52.122;5.250;2023-06-10T06:22:23;14.0;;;7.7;;
62457;SDS011;48509;52.122;5.250;2023-06-10T06:23:59;11.6;;;7.2;;
62457;SDS011;48509;52.122;5.250;2023-06-10T06:25:35;15.2;;;7.3;;
62457;SDS011;48509;52.122;5.250;2023-06-10T06:27:11;16.9;;;8.0;;
62457;SDS011;48509;52.122;5.250;2023-06-10T06:30:24;13.2;;;7.2;;
62457;SDS011;48509;52.122;5.250;2023-06-10T06:32:00;14.2;;;8.0;;
62457;SDS011;48509;52.122;5.250;2023-06-10T06:33:36;14.2;;;7.6;;
62457;SDS011;48509;52.122;5.250;2023-06-10T06:36:48;10.9;;;7.3;;
62457;SDS011;48509;52.122;5.250;2023-06-10T06:38:24;10.6;;;7.7;;
62457;SDS011;48509;52.122;5.250;2023-06-10T06:40:01;13.7;;;7.5;;
62457;SDS011;48509;52.122;5.250;2023-06-10T06:43:13;12.1;;;7.1;;
62457;SDS011;48509;52.122;5.250;2023-06-10T06:44:49;9.81;;;7.0;;
62457;SDS011;48509;52.122;5.250;2023-06-10T06:46:25;13.2;;;7.7;;
62457;SDS011;48509;52.122;5.250;2023-06-10T06:49:38;12.1;;;7.5;;
62457;SDS011;48509;52.122;5.250;2023-06-10T06:51:14;15.7;;;7.6;;
62457;SDS011;48509;52.122;5.250;2023-06-10T06:52:50;13.5;;;6.9;;
62457;SDS011;48509;52.122;5.250;2023-06-10T06:54:26;17.3;;;7.6;;
62457;SDS011;48509;52.122;5.250;2023-06-10T06:57:39;10.8;;;7.0;;
62457;SDS011;48509;52.122;5.250;2023-06-10T06:59:15;11.5;;;7.4;;
62457;SDS011;48509;52.122;5.250;2023-06-10T07:00:51;11.8;;;7.1;;
62457;SDS011;48509;52.122;5.250;2023-06-10T07:04:03;10.3;;;7.2;;
62457;SDS011;48509;52.122;5.250;2023-06-10T07:05:39;16.8;;;7.6;;
62457;SDS011;48509;52.122;5.250;2023-06-10T07:07:16;10.7;;;6.8;;
62457;SDS011;48509;52.122;5.250;2023-06-10T07:10:28;9.9;;;6.8;;
62457;SDS011;48509;52.122;5.250;2023-06-10T07:12:05;18.5;;;7.3;;
62457;SDS011;48509;52.122;5.250;2023-06-10T07:13:41;11.3;;;6.8;;
62457;SDS011;48509;52.122;5.250;2023-06-10T07:15:18;13.2;;;7.0;;
62457;SDS011;48509;52.122;5.250;2023-06-10T07:18:30;14.3;;;6.7;;
62457;SDS011;48509;52.122;5.250;2023-06-10T07:20:07;15.0;;;7.1;;
62457;SDS011;48509;52.122;5.250;2023-06-10T07:21:43;10.4;;;6.7;;
62457;SDS011;48509;52.122;5.250;2023-06-10T07:24:56;13.3;;;6.9;;
62457;SDS011;48509;52.122;5.250;2023-06-10T07:26:33;10.3;;;6.9;;
62457;SDS011;48509;52.122;5.250;2023-06-10T07:32:58;11.6;;;7.2;;
62457;SDS011;48509;52.122;5.250;2023-06-10T07:34:35;12.3;;;7.5;;
62457;SDS011;48509;52.122;5.250;2023-06-10T07:36:11;9.31;;;6.7;;
62457;SDS011;48509;52.122;5.250;2023-06-10T07:39:23;19.2;;;6.9;;
62457;SDS011;48509;52.122;5.250;2023-06-10T07:40:59;12.8;;;7.3;;
62457;SDS011;48509;52.122;5.250;2023-06-10T07:42:35;9.9;;;6.7;;
62457;SDS011;48509;52.122;5.250;2023-06-10T07:45:48;11.8;;;6.5;;
62457;SDS011;48509;52.122;5.250;2023-06-10T07:47:24;11.2;;;6.6;;
62457;SDS011;48509;52.122;5.250;2023-06-10T07:49:00;12.1;;;6.8;;
62457;SDS011;48509;52.122;5.250;2023-06-10T07:52:13;10.8;;;6.3;;
62457;SDS011;48509;52.122;5.250;2023-06-10T07:53:49;11.9;;;7.2;;
62457;SDS011;48509;52.122;5.250;2023-06-10T07:55:25;12.8;;;7.1;;
62457;SDS011;48509;52.122;5.250;2023-06-10T07:58:37;12.8;;;7.1;;
62457;SDS011;48509;52.122;5.250;2023-06-10T08:00:14;12.9;;;6.9;;
62457;SDS011;48509;52.122;5.250;2023-06-10T08:01:51;9.9;;;7.0;;
62457;SDS011;48509;52.122;5.250;2023-06-10T08:03:27;9.6;;;6.5;;
62457;SDS011;48509;52.122;5.250;2023-06-10T08:06:40;11.9;;;6.4;;
62457;SDS011;48509;52.122;5.250;2023-06-10T08:08:16;13.1;;;6.5;;
62457;SDS011;48509;52.122;5.250;2023-06-10T08:09:52;14.3;;;6.3;;
62457;SDS011;48509;52.122;5.250;2023-06-10T08:13:05;9.71;;;6.3;;
62457;SDS011;48509;52.122;5.250;2023-06-10T08:14:41;11.6;;;6.2;;
62457;SDS011;48509;52.122;5.250;2023-06-10T08:16:17;11.7;;;6.8;;
62457;SDS011;48509;52.122;5.250;2023-06-10T08:19:29;13.4;;;6.7;;
62457;SDS011;48509;52.122;5.250;2023-06-10T08:21:06;10.6;;;6.0;;
62457;SDS011;48509;52.122;5.250;2023-06-10T08:22:42;12.8;;;6.5;;
62457;SDS011;48509;52.122;5.250;2023-06-10T08:24:18;12.1;;;6.8;;
62457;SDS011;48509;52.122;5.250;2023-06-10T08:27:30;14.2;;;6.7;;
62457;SDS011;48509;52.122;5.250;2023-06-10T08:29:06;9.71;;;6.2;;
62457;SDS011;48509;52.122;5.250;2023-06-10T08:30:42;12.4;;;6.6;;
62457;SDS011;48509;52.122;5.250;2023-06-10T08:33:55;11.9;;;6.8;;
62457;SDS011;48509;52.122;5.250;2023-06-10T08:35:31;14.4;;;6.5;;
62457;SDS011;48509;52.122;5.250;2023-06-10T08:37:07;10.21;;;6.5;;
62457;SDS011;48509;52.122;5.250;2023-06-10T08:40:20;9.4;;;6.0;;
62457;SDS011;48509;52.122;5.250;2023-06-10T08:41:58;11.5;;;6.7;;
62457;SDS011;48509;52.122;5.250;2023-06-10T08:43:48;12.2;;;6.8;;
62457;SDS011;48509;52.122;5.250;2023-06-10T08:45:45;11.9;;;6.8;;
62457;SDS011;48509;52.122;5.250;2023-06-10T08:47:24;9.1;;;6.0;;
62457;SDS011;48509;52.122;5.250;2023-06-10T08:50:41;12.0;;;6.4;;
62457;SDS011;48509;52.122;5.250;2023-06-10T08:52:17;14.8;;;6.7;;
62457;SDS011;48509;52.122;5.250;2023-06-10T08:53:57;14.2;;;6.7;;
62457;SDS011;48509;52.122;5.250;2023-06-10T08:57:17;11.0;;;6.2;;
62457;SDS011;48509;52.122;5.250;2023-06-10T08:58:53;12.1;;;6.7;;
62457;SDS011;48509;52.122;5.250;2023-06-10T09:00:31;14.4;;;6.9;;
62457;SDS011;48509;52.122;5.250;2023-06-10T09:02:08;13.7;;;6.8;;
62457;SDS011;48509;52.122;5.250;2023-06-10T09:05:21;14.0;;;6.8;;
62457;SDS011;48509;52.122;5.250;2023-06-10T09:06:57;11.7;;;6.5;;
62457;SDS011;48509;52.122;5.250;2023-06-10T09:08:34;12.6;;;6.4;;
62457;SDS011;48509;52.122;5.250;2023-06-10T09:11:48;10.5;;;6.3;;
62457;SDS011;48509;52.122;5.250;2023-06-10T09:13:24;8.71;;;6.2;;
62457;SDS011;48509;52.122;5.250;2023-06-10T09:15:00;9.71;;;6.1;;
62457;SDS011;48509;52.122;5.250;2023-06-10T09:16:37;12.9;;;6.4;;
62457;SDS011;48509;52.122;5.250;2023-06-10T09:19:50;8.1;;;5.8;;
62457;SDS011;48509;52.122;5.250;2023-06-10T09:21:28;12.7;;;6.3;;
62457;SDS011;48509;52.122;5.250;2023-06-10T09:23:04;11.7;;;6.1;;
62457;SDS011;48509;52.122;5.250;2023-06-10T09:26:17;13.4;;;6.0;;
62457;SDS011;48509;52.122;5.250;2023-06-10T09:27:54;11.2;;;6.4;;
62457;SDS011;48509;52.122;5.250;2023-06-10T09:29:31;12.4;;;6.6;;
62457;SDS011;48509;52.122;5.250;2023-06-10T09:32:43;10.1;;;6.2;;
62457;SDS011;48509;52.122;5.250;2023-06-10T09:34:20;11.7;;;6.0;;
62457;SDS011;48509;52.122;5.250;2023-06-10T09:36:01;11.7;;;6.0;;
62457;SDS011;48509;52.122;5.250;2023-06-10T09:37:38;14.1;;;6.1;;
62457;SDS011;48509;52.122;5.250;2023-06-10T09:40:52;7.4;;;5.9;;
62457;SDS011;48509;52.122;5.250;2023-06-10T09:42:32;9.71;;;5.8;;
62457;SDS011;48509;52.122;5.250;2023-06-10T09:44:11;8.9;;;5.8;;
62457;SDS011;48509;52.122;5.250;2023-06-10T09:47:25;10.0;;;5.5;;
62457;SDS011;48509;52.122;5.250;2023-06-10T09:49:02;11.2;;;5.8;;
62457;SDS011;48509;52.122;5.250;2023-06-10T09:50:41;8.4;;;5.5;;
62457;SDS011;48509;52.122;5.250;2023-06-10T09:52:21;9.71;;;6.0;;
62457;SDS011;48509;52.122;5.250;2023-06-10T09:55:35;11.0;;;5.7;;
62457;SDS011;48509;52.122;5.250;2023-06-10T09:57:13;9.4;;;5.7;;
62457;SDS011;48509;52.122;5.250;2023-06-10T09:58:49;12.7;;;5.7;;
62457;SDS011;48509;52.122;5.250;2023-06-10T10:02:12;13.3;;;5.8;;
62457;SDS011;48509;52.122;5.250;2023-06-10T10:03:50;13.5;;;5.8;;
62457;SDS011;48509;52.122;5.250;2023-06-10T10:05:27;12.3;;;5.8;;
62457;SDS011;48509;52.122;5.250;2023-06-10T10:07:04;7.9;;;5.5;;
62457;SDS011;48509;52.122;5.250;2023-06-10T10:10:17;8.5;;;5.9;;
62457;SDS011;48509;52.122;5.250;2023-06-10T10:11:55;10.3;;;5.6;;
62457;SDS011;48509;52.122;5.250;2023-06-10T10:13:33;9.31;;;5.6;;
62457;SDS011;48509;52.122;5.250;2023-06-10T10:15:11;12.3;;;5.8;;
62457;SDS011;48509;52.122;5.250;2023-06-10T10:18:25;12.3;;;5.8;;
62457;SDS011;48509;52.122;5.250;2023-06-10T10:20:06;10.9;;;5.7;;
62457;SDS011;48509;52.122;5.250;2023-06-10T10:21:47;10.21;;;5.4;;
62457;SDS011;48509;52.122;5.250;2023-06-10T10:25:21;6.4;;;5.2;;
62457;SDS011;48509;52.122;5.250;2023-06-10T10:27:01;14.4;;;5.4;;
62457;SDS011;48509;52.122;5.250;2023-06-10T10:28:48;12.4;;;5.7;;
62457;SDS011;48509;52.122;5.250;2023-06-10T10:30:44;12.4;;;5.7;;
62457;SDS011;48509;52.122;5.250;2023-06-10T10:32:26;9.9;;;5.4;;
62457;SDS011;48509;52.122;5.250;2023-06-10T10:34:15;10.21;;;5.11;;
62457;SDS011;48509;52.122;5.250;2023-06-10T10:37:33;11.1;;;5.5;;
62457;SDS011;48509;52.122;5.250;2023-06-10T10:39:11;7.8;;;4.91;;
62457;SDS011;48509;52.122;5.250;2023-06-10T10:40:48;9.21;;;5.6;;
62457;SDS011;48509;52.122;5.250;2023-06-10T10:42:25;11.2;;;5.2;;
62457;SDS011;48509;52.122;5.250;2023-06-10T10:45:40;8.5;;;5.4;;
62457;SDS011;48509;52.122;5.250;2023-06-10T10:47:16;6.4;;;5.2;;
62457;SDS011;48509;52.122;5.250;2023-06-10T10:48:57;10.0;;;5.0;;
62457;SDS011;48509;52.122;5.250;2023-06-10T10:52:12;7.0;;;5.2;;
62457;SDS011;48509;52.122;5.250;2023-06-10T10:54:09;8.81;;;5.6;;
62457;SDS011;48509;52.122;5.250;2023-06-10T10:56:05;7.1;;;5.4;;
62457;SDS011;48509;52.122;5.250;2023-06-10T10:57:43;7.7;;;5.5;;
62457;SDS011;48509;52.122;5.250;2023-06-10T10:59:19;8.71;;;5.2;;
62457;SDS011;48509;52.122;5.250;2023-06-10T11:02:32;9.31;;;5.6;;
62457;SDS011;48509;52.122;5.250;2023-06-10T11:04:17;9.4;;;5.2;;
62457;SDS011;48509;52.122;5.250;2023-06-10T11:05:54;9.1;;;5.2;;
62457;SDS011;48509;52.122;5.250;2023-06-10T11:07:33;9.9;;;5.4;;
62457;SDS011;48509;52.122;5.250;2023-06-10T11:11:17;12.3;;;5.4;;
62457;SDS011;48509;52.122;5.250;2023-06-10T11:12:54;9.31;;;5.11;;
62457;SDS011;48509;52.122;5.250;2023-06-10T11:14:33;11.3;;;5.6;;
62457;SDS011;48509;52.122;5.250;2023-06-10T11:16:09;7.2;;;5.0;;
62457;SDS011;48509;52.122;5.250;2023-06-10T11:19:43;9.0;;;5.6;;
62457;SDS011;48509;52.122;5.250;2023-06-10T11:21:20;11.4;;;5.5;;
62457;SDS011;48509;52.122;5.250;2023-06-10T11:23:00;9.1;;;5.2;;
62457;SDS011;48509;52.122;5.250;2023-06-10T11:24:37;12.0;;;5.4;;
62457;SDS011;48509;52.122;5.250;2023-06-10T11:28:17;7.5;;;5.2;;
62457;SDS011;48509;52.122;5.250;2023-06-10T11:29:56;10.21;;;5.2;;
62457;SDS011;48509;52.122;5.250;2023-06-10T11:31:38;9.0;;;4.91;;
62457;SDS011;48509;52.122;5.250;2023-06-10T11:33:18;7.8;;;4.91;;
62457;SDS011;48509;52.122;5.250;2023-06-10T11:34:54;9.21;;;5.7;;
62457;SDS011;48509;52.122;5.250;2023-06-10T11:38:10;8.6;;;5.8;;
62457;SDS011;48509;52.122;5.250;2023-06-10T11:39:46;8.1;;;5.6;;
62457;SDS011;48509;52.122;5.250;2023-06-10T11:41:23;6.0;;;5.2;;
62457;SDS011;48509;52.122;5.250;2023-06-10T11:44:35;10.5;;;5.8;;
62457;SDS011;48509;52.122;5.250;2023-06-10T11:46:12;8.31;;;5.5;;
62457;SDS011;48509;52.122;5.250;2023-06-10T11:47:56;8.1;;;5.7;;
62457;SDS011;48509;52.122;5.250;2023-06-10T11:49:33;13.6;;;6.1;;
62457;SDS011;48509;52.122;5.250;2023-06-10T11:52:45;9.9;;;5.9;;
62457;SDS011;48509;52.122;5.250;2023-06-10T11:54:21;9.0;;;5.8;;
62457;SDS011;48509;52.122;5.250;2023-06-10T11:55:57;10.0;;;5.6;;
62457;SDS011;48509;52.122;5.250;2023-06-10T11:59:10;7.6;;;5.9;;
62457;SDS011;48509;52.122;5.250;2023-06-10T12:00:46;7.6;;;5.4;;
62457;SDS011;48509;52.122;5.250;2023-06-10T12:02:24;11.1;;;5.9;;
62457;SDS011;48509;52.122;5.250;2023-06-10T12:04:01;9.6;;;5.4;;
62457;SDS011;48509;52.122;5.250;2023-06-10T12:07:17;7.8;;;5.4;;
62457;SDS011;48509;52.122;5.250;2023-06-10T12:08:53;9.0;;;5.7;;
62457;SDS011;48509;52.122;5.250;2023-06-10T12:10:30;9.4;;;5.11;;
62457;SDS011;48509;52.122;5.250;2023-06-10T12:13:45;11.9;;;5.6;;
62457;SDS011;48509;52.122;5.250;2023-06-10T12:15:23;11.0;;;5.4;;
62457;SDS011;48509;52.122;5.250;2023-06-10T12:16:59;10.1;;;5.5;;
62457;SDS011;48509;52.122;5.250;2023-06-10T12:18:36;8.9;;;5.2;;
62457;SDS011;48509;52.122;5.250;2023-06-10T12:22:02;7.6;;;5.5;;
62457;SDS011;48509;52.122;5.250;2023-06-10T12:23:38;10.21;;;5.5;;
62457;SDS011;48509;52.122;5.250;2023-06-10T12:25:14;11.2;;;5.5;;
62457;SDS011;48509;52.122;5.250;2023-06-10T12:28:30;9.4;;;5.6;;
62457;SDS011;48509;52.122;5.250;2023-06-10T12:30:07;10.6;;;5.8;;
62457;SDS011;48509;52.122;5.250;2023-06-10T12:32:00;10.3;;;5.7;;
62457;SDS011;48509;52.122;5.250;2023-06-10T12:33:38;11.4;;;5.11;;
62457;SDS011;48509;52.122;5.250;2023-06-10T12:36:53;6.9;;;5.5;;
62457;SDS011;48509;52.122;5.250;2023-06-10T12:38:29;9.5;;;5.5;;
62457;SDS011;48509;52.122;5.250;2023-06-10T12:40:06;9.21;;;5.6;;
62457;SDS011;48509;52.122;5.250;2023-06-10T12:41:46;8.31;;;5.5;;
62457;SDS011;48509;52.122;5.250;2023-06-10T12:44:59;11.5;;;5.8;;
62457;SDS011;48509;52.122;5.250;2023-06-10T12:46:36;7.3;;;5.3;;
62457;SDS011;48509;52.122;5.250;2023-06-10T12:48:17;9.0;;;5.8;;
62457;SDS011;48509;52.122;5.250;2023-06-10T12:51:31;8.4;;;5.5;;
62457;SDS011;48509;52.122;5.250;2023-06-10T12:53:07;9.6;;;5.3;;
62457;SDS011;48509;52.122;5.250;2023-06-10T12:54:44;7.2;;;5.4;;
62457;SDS011;48509;52.122;5.250;2023-06-10T12:56:20;6.5;;;5.4;;
62457;SDS011;48509;52.122;5.250;2023-06-10T12:59:32;6.7;;;5.8;;